createdAt,value
2018-02-21T10:36:52.887Z,39.80
2018-02-21T10:39:20.419Z,45.60
2018-02-21T10:41:48.706Z,41.60
2018-02-21T10:44:17.004Z,39.97
2018-02-21T10:46:44.519Z,39.37
2018-02-21T10:49:12.140Z,38.03
2018-02-21T10:51:39.649Z,35.93
2018-02-21T10:54:07.245Z,38.93
2018-02-21T10:56:35.519Z,39.07
2018-02-21T10:59:03.855Z,36.90
2018-02-21T11:01:31.367Z,38.60
2018-02-21T11:03:59.674Z,38.37
2018-02-21T11:06:27.236Z,41.23
2018-02-21T11:08:55.502Z,40.30
2018-02-21T11:11:23.022Z,39.97
2018-02-21T11:13:50.553Z,38.77
2018-02-21T11:16:18.065Z,38.90
2018-02-21T11:18:45.646Z,37.37
2018-02-21T11:21:13.935Z,38.30
2018-02-21T11:23:42.246Z,36.53
2018-02-21T11:26:09.874Z,39.53
2018-02-21T11:28:38.261Z,37.07
2018-02-21T11:31:06.530Z,37.63
2018-02-21T11:33:34.803Z,36.27
2018-02-21T11:36:03.107Z,35.53
2018-02-21T11:38:30.617Z,34.90
2018-02-21T11:40:58.126Z,36.93
2018-02-21T11:43:26.410Z,36.17
2018-02-21T11:45:54.787Z,38.07
2018-02-21T11:48:23.061Z,36.77
2018-02-21T11:50:51.369Z,38.07
2018-02-21T11:53:18.881Z,36.30
2018-02-21T11:55:46.395Z,38.50
2018-02-21T11:58:13.910Z,37.20
2018-02-21T12:00:41.419Z,36.23
2018-02-21T12:03:08.931Z,34.37
2018-02-21T12:05:36.452Z,37.17
2018-02-21T12:08:04.003Z,37.70
2018-02-21T12:10:31.557Z,35.53
2018-02-21T12:12:59.833Z,37.93
2018-02-21T12:15:28.108Z,36.00
2018-02-21T12:17:56.409Z,34.80
2018-02-21T12:20:24.361Z,35.50
2018-02-21T12:22:51.881Z,36.60
2018-02-21T12:25:19.390Z,38.30
2018-02-21T12:27:47.695Z,37.13
2018-02-21T12:30:15.204Z,37.97
2018-02-21T12:32:44.540Z,40.00
2018-02-21T12:35:12.817Z,38.50
2018-02-21T12:37:41.473Z,33.00
2018-02-21T12:40:08.979Z,35.17
2018-02-21T12:42:37.272Z,37.57
2018-02-21T12:45:04.833Z,34.50
2018-02-21T12:47:33.111Z,34.97
2018-02-21T12:50:02.333Z,34.27
2018-02-21T12:52:29.857Z,33.23
2018-02-21T12:54:57.371Z,35.87
2018-02-21T12:57:24.881Z,34.70
2018-02-21T12:59:52.407Z,36.53
2018-02-21T13:02:19.919Z,32.90
2018-02-21T13:04:48.197Z,35.00
2018-02-21T13:07:16.473Z,35.60
2018-02-21T13:09:44.053Z,36.90
2018-02-21T13:12:12.437Z,36.43
2018-02-21T13:14:40.712Z,37.13
2018-02-21T13:17:08.999Z,34.73
2018-02-21T13:19:37.385Z,36.03
2018-02-21T13:22:04.946Z,38.07
2018-02-21T13:24:33.327Z,38.47
2018-02-21T13:27:01.720Z,35.73
2018-02-21T13:29:29.241Z,32.03
2018-02-21T13:31:56.884Z,35.00
2018-02-21T13:34:24.401Z,33.30
2018-02-21T13:36:52.786Z,31.60
2018-02-21T13:39:21.067Z,34.90
2018-02-21T13:41:49.354Z,36.17
2018-02-21T13:44:17.750Z,34.73
2018-02-21T13:46:45.296Z,36.23
2018-02-21T13:49:12.812Z,35.87
2018-02-21T13:51:40.554Z,38.27
2018-02-21T13:54:08.107Z,35.50
2018-02-21T13:56:35.664Z,33.60
2018-02-21T13:59:03.187Z,33.87
2018-02-21T14:01:31.365Z,35.77
2018-02-21T14:03:58.909Z,31.93
2018-02-21T14:06:26.432Z,32.67
2018-02-21T14:08:53.986Z,35.30
2018-02-21T14:11:22.256Z,33.10
2018-02-21T14:13:49.771Z,30.07
2018-02-21T14:16:17.290Z,32.67
2018-02-21T14:18:45.566Z,32.77
2018-02-21T14:21:13.861Z,32.83
2018-02-21T14:23:42.138Z,36.53
2018-02-21T14:26:10.521Z,32.07
2018-02-21T14:28:38.792Z,32.57
2018-02-21T14:31:07.064Z,32.27
2018-02-21T14:33:34.604Z,31.77
2018-02-21T14:36:02.125Z,34.80
2018-02-21T14:38:29.651Z,34.60
2018-02-21T14:40:57.168Z,36.50
2018-02-21T14:43:24.692Z,33.33
2018-02-21T14:45:52.970Z,35.70
2018-02-21T14:48:21.246Z,33.90
2018-02-21T14:50:48.769Z,35.07
2018-02-21T14:53:16.271Z,33.40
2018-02-21T14:55:43.790Z,32.13
2018-02-21T14:58:11.296Z,34.17
2018-02-21T15:00:39.600Z,36.40
2018-02-21T15:03:07.125Z,30.17
2018-02-21T15:05:34.654Z,31.60
2018-02-21T15:08:02.193Z,32.83
2018-02-21T15:10:29.706Z,32.13
2018-02-21T15:12:57.358Z,32.43
2018-02-21T15:15:24.873Z,29.37
2018-02-21T15:17:53.151Z,28.90
2018-02-21T15:20:21.433Z,32.27
2018-02-21T15:22:49.722Z,31.03
2018-02-21T15:25:17.253Z,28.70
2018-02-21T15:27:44.797Z,27.93
2018-02-21T15:30:12.421Z,27.60
2018-02-21T15:32:39.990Z,29.43
2018-02-21T15:35:07.585Z,29.43
2018-02-21T15:37:35.116Z,30.47
2018-02-21T15:40:02.640Z,27.23
2018-02-21T15:42:30.157Z,30.30
2018-02-21T15:44:57.710Z,25.57
2018-02-21T15:47:25.231Z,25.37
2018-02-21T15:49:52.837Z,25.77
2018-02-21T15:52:20.371Z,25.63
2018-02-21T15:54:47.900Z,27.10
2018-02-21T15:57:15.409Z,27.23
2018-02-21T15:59:43.682Z,26.03
2018-02-21T16:02:12.003Z,25.53
2018-02-21T16:04:39.524Z,25.00
2018-02-21T16:07:07.040Z,27.70
2018-02-21T16:09:34.552Z,25.90
2018-02-21T16:12:02.856Z,24.37
2018-02-21T16:14:31.250Z,26.33
2018-02-21T16:16:58.776Z,24.27
2018-02-21T16:19:27.088Z,27.57
2018-02-21T16:21:54.605Z,27.17
2018-02-21T16:24:22.915Z,26.33
2018-02-21T16:26:51.199Z,26.10
2018-02-21T16:29:18.727Z,24.47
2018-02-21T16:31:46.332Z,24.53
2018-02-21T16:34:14.457Z,23.73
2018-02-21T16:36:41.976Z,26.87
2018-02-21T16:39:10.367Z,25.83
2018-02-21T16:41:37.928Z,28.13
2018-02-21T16:44:05.593Z,24.07
2018-02-21T16:46:33.978Z,24.53
2018-02-21T16:49:01.543Z,26.47
2018-02-21T16:51:29.063Z,27.47
2018-02-21T16:54:02.283Z,24.73
2018-02-21T16:56:30.568Z,25.23
2018-02-21T16:58:58.849Z,23.43
2018-02-21T17:01:27.148Z,24.87
2018-02-21T17:03:54.667Z,25.80
2018-02-21T17:06:22.179Z,29.43
2018-02-21T17:08:49.695Z,25.50
2018-02-21T17:11:17.233Z,24.23
2018-02-21T17:13:44.956Z,25.60
2018-02-21T17:16:13.232Z,23.77
2018-02-21T17:18:41.659Z,23.93
2018-02-21T17:21:09.190Z,23.67
2018-02-21T17:23:36.703Z,22.17
2018-02-21T17:26:04.252Z,26.93
2018-02-21T17:28:31.764Z,22.60
2018-02-21T17:31:00.050Z,25.50
2018-02-21T17:33:28.344Z,22.87
2018-02-21T17:35:55.915Z,21.93
2018-02-21T17:38:23.433Z,19.70
2018-02-21T17:40:56.632Z,23.97
2018-02-21T17:43:24.153Z,26.77
2018-02-21T17:45:51.771Z,22.97
2018-02-21T17:48:20.057Z,29.20
2018-02-21T17:50:48.334Z,28.23
2018-02-21T17:53:15.864Z,26.90
2018-02-21T17:55:43.411Z,27.60
2018-02-21T17:58:10.938Z,27.87
2018-02-21T18:00:39.222Z,25.60
2018-02-21T18:03:06.791Z,29.30
2018-02-21T18:05:34.310Z,26.70
2018-02-21T18:08:01.836Z,26.63
2018-02-21T18:10:29.345Z,25.00
2018-02-21T18:12:56.857Z,28.20
2018-02-21T18:15:25.300Z,27.05
2018-02-21T18:17:52.887Z,25.80
2018-02-21T18:20:20.400Z,39.23
2018-02-21T18:22:47.925Z,22.17
2018-02-21T18:25:15.475Z,26.77
2018-02-21T18:27:43.861Z,29.13
2018-02-21T18:30:11.376Z,22.00
2018-02-21T18:32:38.894Z,24.67
2018-02-21T18:35:06.428Z,23.13
2018-02-21T18:37:33.935Z,22.53
2018-02-21T18:40:01.472Z,28.60
2018-02-21T18:42:29.767Z,25.67
2018-02-21T18:44:57.301Z,19.70
2018-02-21T18:47:24.807Z,22.93
2018-02-21T18:49:52.355Z,21.67
2018-02-21T18:52:19.924Z,20.20
2018-02-21T18:54:47.437Z,29.97
2018-02-21T18:57:14.987Z,25.97
2018-02-21T18:59:42.503Z,25.27
2018-02-21T19:02:10.807Z,24.13
2018-02-21T19:04:38.326Z,24.90
2018-02-21T19:07:06.092Z,25.60
2018-02-21T19:09:33.672Z,25.70
2018-02-21T19:12:01.978Z,23.20
2018-02-21T19:14:29.810Z,22.83
2018-02-21T19:16:57.352Z,24.03
2018-02-21T19:19:24.882Z,23.57
2018-02-21T19:21:52.437Z,23.67
2018-02-21T19:24:19.998Z,22.93
2018-02-21T19:26:48.486Z,21.07
2018-02-21T19:29:16.049Z,23.13
2018-02-21T19:31:43.562Z,22.37
2018-02-21T19:34:11.143Z,20.73
2018-02-21T19:36:38.729Z,23.70
2018-02-21T19:39:06.266Z,21.00
2018-02-21T19:41:34.568Z,22.20
2018-02-21T19:44:02.847Z,22.83
2018-02-21T19:46:31.146Z,23.10
2018-02-21T19:48:58.715Z,19.73
2018-02-21T19:51:26.246Z,21.60
2018-02-21T19:53:54.542Z,21.97
2018-02-21T19:56:22.073Z,21.23
2018-02-21T19:58:50.415Z,22.70
2018-02-21T20:01:17.935Z,22.63
2018-02-21T20:03:45.598Z,21.17
2018-02-21T20:06:13.122Z,20.13
2018-02-21T20:08:40.650Z,23.90
2018-02-21T20:11:08.226Z,21.23
2018-02-21T20:13:35.750Z,20.93
2018-02-21T20:16:03.348Z,22.83
2018-02-21T20:18:31.438Z,19.70
2018-02-21T20:20:58.954Z,23.20
2018-02-21T20:23:27.237Z,21.93
2018-02-21T20:25:54.753Z,20.77
2018-02-21T20:28:22.262Z,21.20
2018-02-21T20:30:49.784Z,20.67
2018-02-21T20:33:17.309Z,23.17
2018-02-21T20:35:45.396Z,21.60
2018-02-21T20:38:13.344Z,19.90
2018-02-21T20:40:41.651Z,23.97
2018-02-21T20:43:09.177Z,23.90
2018-02-21T20:45:36.717Z,22.17
2018-02-21T20:48:04.238Z,24.57
2018-02-21T20:50:31.751Z,22.30
2018-02-21T20:52:59.269Z,23.60
2018-02-21T20:55:26.783Z,20.40
2018-02-21T20:57:54.319Z,20.83
2018-02-21T21:00:21.833Z,22.17
2018-02-21T21:02:50.110Z,19.73
2018-02-21T21:05:17.700Z,20.50
2018-02-21T21:07:45.261Z,20.83
2018-02-21T21:10:12.785Z,21.97
2018-02-21T21:12:40.310Z,19.43
2018-02-21T21:15:07.828Z,19.77
2018-02-21T21:17:35.343Z,22.23
2018-02-21T21:20:03.088Z,20.97
2018-02-21T21:22:30.624Z,21.40
2018-02-21T21:24:58.900Z,19.70
2018-02-21T21:27:26.417Z,20.57
2018-02-21T21:29:53.929Z,20.00
2018-02-21T21:32:21.525Z,20.87
2018-02-21T21:34:49.042Z,20.07
2018-02-21T21:37:17.355Z,20.13
2018-02-21T21:39:45.633Z,19.20
2018-02-21T21:42:13.926Z,20.23
2018-02-21T21:44:41.454Z,20.30
2018-02-21T21:47:08.963Z,20.40
2018-02-21T21:49:36.507Z,22.17
2018-02-21T21:52:04.787Z,21.30
2018-02-21T21:54:33.059Z,21.17
2018-02-21T21:57:01.337Z,19.70
2018-02-21T21:59:29.626Z,18.50
2018-02-21T22:01:57.913Z,21.80
2018-02-21T22:04:26.241Z,19.53
2018-02-21T22:06:53.728Z,22.83
2018-02-21T22:09:21.355Z,20.67
2018-02-21T22:11:48.939Z,19.50
2018-02-21T22:14:16.462Z,19.47
2018-02-21T22:16:44.031Z,19.43
